KMXO/MXO METAR and TAF weather

Enter ICAO airport designator
Station Type Date Time Source
KMXO METAR 2021/04/18 02:15 UTC NOAA

KMXO 180215Z AUTO 34005KT 10SM CLR 09/M04 A2996 RMK AO2


Station Type Date Time Source
KMXO Decoded METAR 2021/04/18 02:15 UTC NOAA

Monticello Municipal, IA, United States (KMXO) 42-14N 091-10W
Apr 17, 2021 - 10:15 PM EDT / 2021.04.18 0215 UTC
Wind: from the NNW (340 degrees) at 6 MPH (5 KT):0
Visibility: 10 mile(s):0
Sky conditions: clear
Temperature: 48 F (9 C)
Dew Point: 24 F (-4 C)
Relative Humidity: 39%
Pressure (altimeter): 29.96 in. Hg (1014 hPa)
ob: KMXO 180215Z AUTO 34005KT 10SM CLR 09/M04 A2996 RMK AO2
cycle: 2

Station Type Date Time Source
KMXO TAF UTC NOAA

Error!

Example: see airport list